KTPH/TPH METAR and TAF weather

Enter ICAO airport designator
Station Type Date Time Source
KTPH METAR 2020/07/09 07:56 UTC NOAA

KTPH 090756Z AUTO 32013G17KT 10SM CLR 21/M09 A3001 RMK AO2 SLP072 T02111089 403390122


Station Type Date Time Source
KTPH Decoded METAR 2020/07/09 07:56 UTC NOAA

TONOPAH AIRPORT, NV, United States (KTPH) 38-02N 117-05W 1652M
Jul 09, 2020 - 03:56 AM EDT / 2020.07.09 0756 UTC
Wind: from the NW (320 degrees) at 15 MPH (13 KT) gusting to 20 MPH (17 KT):0
Visibility: 10 mile(s):0
Sky conditions: clear
Temperature: 70.0 F (21.1 C)
Dew Point: 16.0 F (-8.9 C)
Relative Humidity: 12%
Pressure (altimeter): 30.01 in. Hg (1016 hPa)
ob: KTPH 090756Z AUTO 32013G17KT 10SM CLR 21/M09 A3001 RMK AO2 SLP072 T02111089 403390122
cycle: 8

Station Type Date Time Source
KTPH TAF 2020/07/09 06:28 UTC NOAA

TAF KTPH 090526Z 0906/1006 01005KT P6SM SKC
FM091800 22010G18KT P6SM SKC
FM100100 24009KT P6SM SKC

Example: see airport list